Time;durP1;ratioP1;P1;durP2;ratioP2;P2;SDS_P1;SDS_P2;PMS_P1;PMS_P2;Temp;Humidity;BMP_temperature;BMP_pressure;BME280_temperature;BME280_humidity;BME280_pressure;Samples;Min_cycle;Max_cycle;Signal;HPM_P1;HPM_P2
2022/03/07 00:00:45;;;;;;;10.57;9.57;;;;;;;1.17;56.58;99226.22;5013281;27;103410;-68
2022/03/07 00:03:16;;;;;;;10.23;9.33;;;;;;;1.21;56.39;99223.53;5013402;27;103310;-70
2022/03/07 00:05:44;;;;;;;10.65;9.70;;;;;;;1.28;56.24;99227.66;5015126;27;104781;-70
2022/03/07 00:08:14;;;;;;;10.13;9.23;;;;;;;1.00;56.72;99228.41;5002700;28;102832;-68
2022/03/07 00:11:03;;;;;;;10.25;9.35;;;;;;;1.24;56.39;99226.88;5013030;28;103642;-68
2022/03/07 00:13:31;;;;;;;9.55;8.75;;;;;;;1.15;56.84;99232.38;5014134;27;103185;-71
2022/03/07 00:16:02;;;;;;;9.57;8.68;;;;;;;1.10;56.80;99229.84;5010954;28;102588;-71
2022/03/07 00:18:30;;;;;;;10.00;9.10;;;;;;;1.12;56.42;99237.66;5013889;28;102698;-71
2022/03/07 00:20:59;;;;;;;9.50;8.65;;;;;;;1.02;56.93;99231.81;5010647;28;103327;-70
2022/03/07 00:23:29;;;;;;;10.10;9.20;;;;;;;1.20;56.66;99235.69;5015544;27;103213;-70
2022/03/07 00:25:57;;;;;;;9.13;8.30;;;;;;;1.32;56.54;99235.34;5010641;28;102706;-70
2022/03/07 00:28:28;;;;;;;9.50;8.70;;;;;;;1.03;57.10;99232.66;5014794;28;102828;-68
2022/03/07 00:30:56;;;;;;;9.43;8.52;;;;;;;1.21;57.12;99237.38;5010755;28;104119;-68
2022/03/07 00:33:24;;;;;;;9.20;8.30;;;;;;;1.14;57.34;99235.84;5013427;28;103024;-71
2022/03/07 00:35:52;;;;;;;9.32;8.43;;;;;;;0.98;57.74;99243.19;5009982;28;104133;-71
2022/03/07 00:38:21;;;;;;;9.18;8.35;;;;;;;1.11;57.76;99236.78;5014281;28;103859;-68
2022/03/07 00:40:50;;;;;;;8.88;8.07;;;;;;;1.19;57.62;99244.38;5013513;28;104020;-68
2022/03/07 00:43:21;;;;;;;9.40;8.50;;;;;;;1.08;58.08;99242.06;5010747;28;103236;-68
2022/03/07 00:45:51;;;;;;;9.30;8.43;;;;;;;1.08;57.82;99236.84;5012100;28;103877;-70
2022/03/07 00:48:20;;;;;;;9.27;8.48;;;;;;;1.19;58.16;99241.78;5011661;28;103744;-70
2022/03/07 00:50:52;;;;;;;9.13;8.23;;;;;;;0.96;58.46;99242.38;5015741;28;103252;-68
2022/03/07 00:53:24;;;;;;;9.15;8.35;;;;;;;1.03;58.33;99249.13;5015513;28;103502;-69
2022/03/07 00:55:56;;;;;;;9.43;8.57;;;;;;;1.02;58.85;99239.63;5011051;28;102685;-70
2022/03/07 00:58:30;;;;;;;9.10;8.30;;;;;;;1.03;58.78;99243.06;5027404;27;102791;-71
2022/03/07 01:01:02;;;;;;;9.43;8.52;;;;;;;0.84;59.67;99241.84;5015196;27;103996;-70
2022/03/07 01:03:30;;;;;;;9.60;8.60;;;;;;;1.04;59.27;99243.03;5013705;28;103233;-70
2022/03/07 01:05:58;;;;;;;9.32;8.52;;;;;;;0.97;59.25;99244.09;5012784;28;102553;-70
2022/03/07 01:08:27;;;;;;;9.07;8.27;;;;;;;0.90;59.37;99247.72;5007983;28;102767;-70
2022/03/07 01:10:56;;;;;;;8.98;8.07;;;;;;;1.13;58.70;99244.53;5013182;28;103253;-70
2022/03/07 01:13:25;;;;;;;8.70;7.82;;;;;;;0.84;59.22;99247.03;5012448;28;104151;-71
2022/03/07 01:15:53;;;;;;;8.90;8.10;;;;;;;0.92;58.84;99245.09;5011514;28;102707;-70
2022/03/07 01:18:21;;;;;;;8.93;8.02;;;;;;;1.17;58.47;99246.19;5012644;28;102655;-71
2022/03/07 01:20:53;;;;;;;8.60;7.82;;;;;;;1.23;57.68;99246.03;5009335;28;103489;-68
2022/03/07 01:23:21;;;;;;;8.57;7.87;;;;;;;0.92;58.53;99245.97;5014381;28;103245;-68
2022/03/07 01:25:49;;;;;;;8.07;7.40;;;;;;;1.12;57.41;99243.69;5011926;28;103299;-71
2022/03/07 01:28:20;;;;;;;8.23;7.53;;;;;;;1.23;57.78;99238.22;5017330;27;103891;-70
2022/03/07 01:30:50;;;;;;;8.27;7.50;;;;;;;0.92;57.60;99237.28;5019237;27;103213;-70
2022/03/07 01:33:18;;;;;;;7.70;7.00;;;;;;;1.11;57.50;99231.56;5014676;28;103246;-71
2022/03/07 01:35:46;;;;;;;7.88;7.20;;;;;;;0.77;57.81;99233.31;5015538;28;102890;-68
2022/03/07 01:38:14;;;;;;;7.82;7.13;;;;;;;0.85;57.86;99233.97;5013120;28;102840;-68
2022/03/07 01:40:45;;;;;;;7.70;7.10;;;;;;;0.90;57.37;99226.91;5013165;27;104449;-71
2022/03/07 01:43:13;;;;;;;7.88;7.18;;;;;;;0.77;57.52;99237.66;5017614;28;103295;-71
2022/03/07 01:45:43;;;;;;;8.23;7.53;;;;;;;0.76;57.34;99228.16;5017177;27;103186;-71
2022/03/07 01:48:12;;;;;;;8.27;7.57;;;;;;;0.77;56.78;99229.84;5014805;28;102597;-70
2022/03/07 01:50:41;;;;;;;7.57;6.88;;;;;;;1.24;55.90;99226.88;5013835;28;104188;-70
2022/03/07 01:53:10;;;;;;;7.65;6.95;;;;;;;0.95;56.24;99219.88;5013847;28;103240;-71
2022/03/07 01:55:38;;;;;;;7.90;7.20;;;;;;;0.87;56.00;99226.16;5015344;28;102678;-70
2022/03/07 01:58:06;;;;;;;8.07;7.32;;;;;;;1.00;55.37;99217.13;5017254;28;103945;-71
2022/03/07 02:00:35;;;;;;;8.18;7.47;;;;;;;0.94;55.33;99219.88;5013638;28;103160;-70
2022/03/07 02:03:05;;;;;;;8.50;7.80;;;;;;;0.59;55.89;99221.59;5011268;28;103826;-68
2022/03/07 02:05:46;;;;;;;8.00;7.30;;;;;;;0.46;56.72;99224.53;5015340;28;102654;-71
2022/03/07 02:08:19;;;;;;;8.20;7.50;;;;;;;0.31;56.93;99215.34;5012944;28;102865;-68
2022/03/07 02:10:59;;;;;;;8.37;7.67;;;;;;;0.14;57.20;99217.47;5014095;28;104116;-68
2022/03/07 02:13:30;;;;;;;8.77;7.97;;;;;;;0.02;58.06;99217.75;5013802;28;106984;-70
2022/03/07 02:16:02;;;;;;;8.80;8.00;;;;;;;-0.07;58.38;99216.22;5014704;28;102930;-68
2022/03/07 02:18:34;;;;;;;8.65;7.95;;;;;;;0.14;57.72;99214.88;5016029;28;104536;-68
2022/03/07 02:21:15;;;;;;;9.00;8.20;;;;;;;0.15;58.13;99210.53;5016621;28;103212;-68
2022/03/07 02:24:15;;;;;;;8.85;8.15;;;;;;;0.24;57.39;99208.59;5003369;28;103239;-68
2022/03/07 02:26:56;;;;;;;8.55;7.75;;;;;;;0.54;56.65;99207.88;5012003;28;102734;-71
2022/03/07 02:29:26;;;;;;;8.68;7.97;;;;;;;0.56;56.24;99206.06;5011062;28;103718;-70
2022/03/07 02:31:57;;;;;;;7.32;6.72;;;;;;;0.92;56.05;99203.47;5012471;28;104189;-68
2022/03/07 02:34:29;;;;;;;7.30;6.70;;;;;;;1.43;54.54;99202.06;5011666;28;105377;-70
2022/03/07 02:37:00;;;;;;;8.32;7.65;;;;;;;0.89;55.23;99208.75;5014974;28;102780;-70
2022/03/07 02:39:40;;;;;;;8.93;8.03;;;;;;;0.32;56.28;99211.88;5009904;28;103958;-70
2022/03/07 02:42:29;;;;;;;9.20;8.33;;;;;;;0.42;56.92;99213.34;5014447;28;105411;-70
2022/03/07 02:44:58;;;;;;;8.48;7.78;;;;;;;0.95;55.78;99206.00;5010536;28;103917;-70
2022/03/07 02:47:26;;;;;;;9.00;8.20;;;;;;;0.77;55.95;99209.03;5013084;28;102561;-68
2022/03/07 02:49:54;;;;;;;8.77;8.05;;;;;;;1.06;55.31;99206.56;5015991;28;102829;-68
2022/03/07 02:52:22;;;;;;;9.50;8.70;;;;;;;0.67;55.55;99198.03;5013962;28;105543;-70
2022/03/07 02:54:52;;;;;;;9.40;8.60;;;;;;;0.53;56.38;99211.34;5014253;28;103179;-71
2022/03/07 02:57:23;;;;;;;9.57;8.77;;;;;;;0.16;57.53;99210.53;5011698;28;102886;-67
2022/03/07 02:59:54;;;;;;;9.48;8.68;;;;;;;0.12;57.22;99214.06;5012676;28;102582;-70
2022/03/07 03:02:24;;;;;;;9.40;8.70;;;;;;;-0.34;58.33;99213.34;5007269;28;103332;-71
2022/03/07 03:04:52;;;;;;;10.17;9.20;;;;;;;-0.22;58.80;99213.06;5016376;28;103150;-68
2022/03/07 03:07:20;;;;;;;9.18;8.43;;;;;;;-0.31;59.14;99213.28;5014893;28;103331;-67
2022/03/07 03:09:50;;;;;;;9.90;9.10;;;;;;;-0.41;59.12;99212.63;5010786;28;104203;-70
2022/03/07 03:12:24;;;;;;;9.93;9.03;;;;;;;-0.52;59.28;99208.50;5011204;28;104108;-70
2022/03/07 03:14:52;;;;;;;10.40;9.40;;;;;;;-0.63;59.92;99217.38;5014930;28;103177;-69
2022/03/07 03:17:20;;;;;;;9.93;9.13;;;;;;;-0.68;59.96;99213.16;5015520;28;103231;-70
2022/03/07 03:19:48;;;;;;;10.40;9.50;;;;;;;-0.68;59.65;99214.03;5012848;27;103072;-68
2022/03/07 03:22:16;;;;;;;10.30;9.23;;;;;;;-0.76;59.80;99221.06;5010185;28;104047;-74
2022/03/07 03:24:44;;;;;;;11.07;10.07;;;;;;;-0.46;59.06;99218.78;5018048;28;103191;-68
2022/03/07 03:27:12;;;;;;;10.33;9.53;;;;;;;-0.56;58.57;99217.28;5012186;28;102886;-68
2022/03/07 03:29:42;;;;;;;9.90;9.10;;;;;;;-0.64;59.11;99215.66;5016112;28;104411;-69
2022/03/07 03:32:10;;;;;;;10.27;9.38;;;;;;;-0.39;58.49;99221.22;5015232;27;103765;-70
2022/03/07 03:34:38;;;;;;;10.47;9.57;;;;;;;-0.44;57.78;99225.66;5015934;28;103246;-70
2022/03/07 03:37:06;;;;;;;10.52;9.63;;;;;;;-0.43;58.11;99223.91;5012526;27;102726;-70
2022/03/07 03:39:34;;;;;;;11.07;10.07;;;;;;;-0.73;58.10;99234.00;5011663;27;102934;-70
2022/03/07 03:42:04;;;;;;;11.07;10.07;;;;;;;-0.88;59.23;99225.66;5012376;27;103229;-70
2022/03/07 03:44:32;;;;;;;11.20;10.20;;;;;;;-0.88;58.90;99225.66;5013238;27;103212;-67
2022/03/07 03:47:02;;;;;;;11.53;10.53;;;;;;;-0.81;58.70;99227.22;5012333;28;103052;-70
2022/03/07 03:49:33;;;;;;;11.23;10.27;;;;;;;-0.81;58.07;99222.91;5016079;27;103755;-70
2022/03/07 03:52:02;;;;;;;10.95;10.05;;;;;;;-0.74;58.76;99228.84;5011640;28;103035;-70
2022/03/07 03:54:30;;;;;;;11.65;10.65;;;;;;;-0.82;58.49;99223.81;5015239;27;103201;-70
2022/03/07 03:56:58;;;;;;;12.47;11.40;;;;;;;-0.82;58.19;99230.72;5010213;27;102587;-70
2022/03/07 03:59:26;;;;;;;11.77;10.73;;;;;;;-0.86;58.51;99232.53;5013357;27;103929;-67
2022/03/07 04:01:54;;;;;;;11.53;10.63;;;;;;;-0.89;58.88;99229.97;5012920;27;103722;-67
2022/03/07 04:04:24;;;;;;;12.30;11.20;;;;;;;-0.80;58.66;99235.00;5009076;28;103414;-70
2022/03/07 04:06:52;;;;;;;12.18;11.05;;;;;;;-0.91;58.73;99234.34;5012818;28;103261;-69
2022/03/07 04:09:29;;;;;;;11.93;10.85;;;;;;;-0.96;58.76;99231.00;5012773;27;103055;-70
2022/03/07 04:11:57;;;;;;;12.75;11.73;;;;;;;-0.96;59.26;99228.41;5013825;27;103822;-67
2022/03/07 04:14:25;;;;;;;12.00;10.90;;;;;;;-1.00;59.30;99223.25;5011103;28;103231;-68
2022/03/07 04:16:54;;;;;;;12.40;11.30;;;;;;;-0.86;58.67;99223.88;5015644;27;102698;-67
2022/03/07 04:19:24;;;;;;;12.75;11.73;;;;;;;-0.81;58.69;99225.50;5014566;28;102616;-67
2022/03/07 04:21:53;;;;;;;12.10;11.10;;;;;;;-0.71;58.44;99232.25;5015703;27;104027;-68
2022/03/07 04:24:24;;;;;;;12.40;11.27;;;;;;;-0.51;57.90;99221.47;5011277;27;103921;-67
2022/03/07 04:26:52;;;;;;;12.02;10.90;;;;;;;-0.41;57.89;99227.31;5014978;27;102825;-67
2022/03/07 04:29:20;;;;;;;12.43;11.43;;;;;;;-0.47;58.13;99228.31;5014424;27;102793;-67
2022/03/07 04:31:54;;;;;;;12.37;11.37;;;;;;;-0.35;57.85;99228.06;5012986;28;104144;-67
2022/03/07 04:34:26;;;;;;;9.90;9.07;;;;;;;0.14;57.18;99230.47;5012981;27;103407;-67
2022/03/07 04:36:57;;;;;;;9.18;8.48;;;;;;;0.56;55.69;99221.69;5014393;28;103013;-67
2022/03/07 04:39:27;;;;;;;8.57;7.87;;;;;;;0.82;55.10;99228.00;5013002;27;103584;-67
2022/03/07 04:41:55;;;;;;;8.73;8.02;;;;;;;0.95;54.61;99232.88;5011104;27;103396;-67
2022/03/07 04:44:23;;;;;;;12.23;11.18;;;;;;;0.48;55.20;99238.34;5010115;28;104305;-69
2022/03/07 04:46:51;;;;;;;12.30;11.13;;;;;;;0.20;56.37;99245.94;5014048;28;102911;-67
2022/03/07 04:49:19;;;;;;;12.32;11.13;;;;;;;0.08;57.48;99241.03;5008540;28;104233;-70
2022/03/07 04:51:49;;;;;;;13.13;11.98;;;;;;;-0.16;58.40;99238.91;5013227;27;103765;-69
2022/03/07 04:54:17;;;;;;;13.00;11.90;;;;;;;0.14;58.08;99259.03;5014751;27;102936;-69
2022/03/07 04:56:47;;;;;;;13.98;12.77;;;;;;;-0.39;59.69;99254.97;5012631;28;103918;-69
2022/03/07 04:59:15;;;;;;;13.45;12.25;;;;;;;-0.56;61.16;99251.84;5009147;28;103048;-69
2022/03/07 05:01:44;;;;;;;12.85;11.65;;;;;;;-0.37;61.63;99250.63;5013292;27;103402;-69
2022/03/07 05:04:12;;;;;;;11.88;10.88;;;;;;;0.25;59.65;99249.31;5015899;28;103328;-69
2022/03/07 05:06:41;;;;;;;11.07;10.17;;;;;;;0.49;58.85;99256.53;5015514;27;102752;-67
2022/03/07 05:09:10;;;;;;;12.10;11.10;;;;;;;0.38;59.52;99258.53;5017573;28;102751;-67
2022/03/07 05:11:38;;;;;;;12.10;11.05;;;;;;;0.67;58.56;99249.19;5018221;27;103436;-67
2022/03/07 05:14:09;;;;;;;12.35;11.25;;;;;;;0.08;60.53;99255.75;5011388;28;104323;-69
2022/03/07 05:16:37;;;;;;;12.05;11.02;;;;;;;0.37;59.53;99259.41;5013869;28;103113;-70
2022/03/07 05:19:05;;;;;;;11.50;10.50;;;;;;;0.67;58.49;99257.00;5011427;28;103988;-70
2022/03/07 05:21:33;;;;;;;10.90;10.00;;;;;;;0.68;59.26;99256.06;5016032;27;104043;-62
2022/03/07 05:24:01;;;;;;;11.68;10.68;;;;;;;0.10;61.25;99257.41;5014189;28;102974;-71
2022/03/07 05:26:30;;;;;;;12.27;11.07;;;;;;;-0.01;62.48;99255.06;5011271;28;102654;-71
2022/03/07 05:28:58;;;;;;;11.35;10.40;;;;;;;-0.12;63.14;99262.22;5015060;28;103800;-71
2022/03/07 05:31:26;;;;;;;11.23;10.23;;;;;;;-0.28;63.36;99262.56;5014055;28;103238;-71
2022/03/07 05:33:54;;;;;;;10.80;9.88;;;;;;;-0.23;64.38;99265.94;5015391;27;103218;-71
2022/03/07 05:36:22;;;;;;;11.30;10.30;;;;;;;-0.19;64.11;99271.00;5017593;27;102627;-69
2022/03/07 05:38:51;;;;;;;9.48;8.68;;;;;;;0.49;62.07;99273.88;5016275;28;103886;-71
2022/03/07 05:41:19;;;;;;;8.90;8.20;;;;;;;0.82;60.77;99280.00;5010440;28;103205;-69
2022/03/07 05:43:48;;;;;;;10.10;9.30;;;;;;;0.94;59.72;99270.19;5017682;27;103231;-69
2022/03/07 05:46:16;;;;;;;9.73;8.93;;;;;;;1.03;59.45;99274.31;5014363;28;103056;-69
2022/03/07 05:48:44;;;;;;;12.30;11.10;;;;;;;0.40;61.69;99279.28;5015346;28;103623;-70
2022/03/07 05:51:12;;;;;;;10.68;9.88;;;;;;;0.77;59.83;99280.13;5010451;27;104077;-69
2022/03/07 05:53:41;;;;;;;10.55;9.68;;;;;;;0.75;60.15;99275.88;5013375;28;104508;-69
2022/03/07 05:56:09;;;;;;;11.50;10.50;;;;;;;-0.71;65.52;99284.16;5013857;28;102589;-71
2022/03/07 05:58:37;;;;;;;11.25;10.25;;;;;;;-0.84;66.81;99284.41;5015652;28;104055;-68
2022/03/07 06:01:07;;;;;;;11.47;10.50;;;;;;;-0.89;67.80;99284.47;5014876;27;104134;-68
2022/03/07 06:03:35;;;;;;;11.30;10.30;;;;;;;-0.85;67.25;99287.88;5013325;28;103225;-68
2022/03/07 06:06:03;;;;;;;11.07;10.05;;;;;;;-0.95;67.43;99286.28;5016330;28;102796;-68
2022/03/07 06:08:32;;;;;;;11.18;10.18;;;;;;;-0.83;67.97;99278.31;5015706;28;104001;-71
2022/03/07 06:11:00;;;;;;;10.73;9.80;;;;;;;-0.79;67.94;99286.03;5017280;28;103249;-71
2022/03/07 06:13:28;;;;;;;10.23;9.23;;;;;;;-0.46;66.67;99286.28;5012342;27;103508;-71
2022/03/07 06:15:56;;;;;;;10.63;9.63;;;;;;;-0.50;66.56;99285.47;5011936;28;102669;-71
2022/03/07 06:18:26;;;;;;;10.68;9.65;;;;;;;-0.27;66.23;99290.22;4997448;28;103383;-69
2022/03/07 06:21:00;;;;;;;10.77;9.77;;;;;;;-0.30;65.54;99282.50;5009063;28;104230;-70
2022/03/07 06:23:44;;;;;;;10.70;9.73;;;;;;;-0.67;66.55;99295.31;5007946;28;103187;-70
2022/03/07 06:26:14;;;;;;;10.15;9.15;;;;;;;-0.55;67.07;99286.44;5011107;28;102868;-71
2022/03/07 06:28:42;;;;;;;10.07;9.18;;;;;;;-0.92;67.81;99289.69;5008251;28;103005;-71
2022/03/07 06:31:10;;;;;;;10.70;9.73;;;;;;;-0.72;68.26;99284.16;5007930;28;103249;-68
2022/03/07 06:33:41;;;;;;;10.65;9.65;;;;;;;-0.67;67.38;99283.19;5008513;28;103252;-69
2022/03/07 06:36:10;;;;;;;11.02;9.93;;;;;;;-0.98;68.64;99284.59;5013245;28;102840;-68
2022/03/07 06:38:39;;;;;;;10.23;9.32;;;;;;;-0.89;68.12;99292.25;5008439;28;103745;-69
2022/03/07 06:41:08;;;;;;;10.73;9.70;;;;;;;-1.20;69.66;99288.44;5009604;28;104296;-69
2022/03/07 06:43:49;;;;;;;10.70;9.57;;;;;;;-1.09;69.52;99291.72;5011997;28;102816;-69
2022/03/07 06:46:17;;;;;;;10.45;9.45;;;;;;;-0.91;68.53;99288.81;5015334;28;102664;-69
2022/03/07 06:48:47;;;;;;;10.50;9.60;;;;;;;-0.98;68.45;99296.75;5017193;28;103668;-68
2022/03/07 06:51:17;;;;;;;10.20;9.20;;;;;;;-1.11;68.52;99290.88;5012273;28;103992;-67
2022/03/07 06:53:45;;;;;;;10.20;9.20;;;;;;;-1.06;68.65;99291.66;5018658;27;103198;-68
2022/03/07 06:56:13;;;;;;;10.45;9.45;;;;;;;-0.86;67.80;99294.78;5019327;27;103129;-70
2022/03/07 06:58:41;;;;;;;10.40;9.50;;;;;;;-0.80;68.03;99294.69;5010053;28;103896;-70
2022/03/07 07:01:16;;;;;;;10.40;9.45;;;;;;;-0.69;67.70;99290.16;5005935;28;103303;-71
2022/03/07 07:03:44;;;;;;;12.40;9.30;;;;;;;-0.59;68.20;99291.69;5006290;28;103253;-71
2022/03/07 07:06:14;;;;;;;9.98;8.98;;;;;;;-0.42;67.41;99298.34;5002237;28;103976;-71
2022/03/07 07:08:42;;;;;;;10.07;9.18;;;;;;;-0.54;66.58;99298.56;5007556;27;102738;-70
2022/03/07 07:11:11;;;;;;;9.60;8.70;;;;;;;-0.38;65.48;99302.56;5006229;28;104012;-70
2022/03/07 07:13:41;;;;;;;9.75;8.85;;;;;;;-0.18;66.07;99296.09;5007895;28;103528;-67
2022/03/07 07:16:10;;;;;;;9.77;8.95;;;;;;;-0.14;66.43;99299.50;5002613;28;102917;-67
2022/03/07 07:18:38;;;;;;;9.50;8.60;;;;;;;0.15;65.23;99309.28;5007168;28;103538;-67
2022/03/07 07:21:06;;;;;;;8.80;8.10;;;;;;;0.32;63.17;99315.84;5008619;28;105103;-67
2022/03/07 07:23:37;;;;;;;9.35;8.45;;;;;;;0.46;63.34;99321.59;5002898;28;103214;-68
2022/03/07 07:26:05;;;;;;;9.60;8.70;;;;;;;0.37;62.68;99319.19;5004296;28;102751;-67
2022/03/07 07:28:34;;;;;;;9.00;8.20;;;;;;;0.68;62.02;99326.31;5008320;28;103076;-68
2022/03/07 07:31:02;;;;;;;9.68;8.77;;;;;;;0.51;61.30;99327.53;5008815;28;104194;-68
2022/03/07 07:33:30;;;;;;;8.80;8.00;;;;;;;0.40;62.21;99329.53;5008519;28;104182;-68
2022/03/07 07:36:01;;;;;;;9.70;8.70;;;;;;;0.73;61.30;99320.09;5005365;28;102841;-68
2022/03/07 07:38:29;;;;;;;9.83;8.93;;;;;;;0.22;62.41;99329.94;5001771;28;103922;-70
2022/03/07 07:40:58;;;;;;;9.85;8.95;;;;;;;0.52;61.47;99318.00;5003786;28;103507;-71
2022/03/07 07:43:26;;;;;;;9.55;8.60;;;;;;;0.85;61.17;99321.56;5004153;28;103333;-71
2022/03/07 07:45:54;;;;;;;9.85;8.95;;;;;;;0.62;60.74;99323.88;5004431;28;102767;-68
2022/03/07 07:48:22;;;;;;;8.98;8.18;;;;;;;1.75;58.98;99324.47;5005434;28;104016;-69
2022/03/07 07:50:50;;;;;;;9.77;8.88;;;;;;;1.33;58.29;99330.78;5004123;28;104806;-71
2022/03/07 07:53:18;;;;;;;9.20;8.40;;;;;;;1.92;58.40;99325.75;5005879;28;103208;-71
2022/03/07 07:55:46;;;;;;;9.63;8.65;;;;;;;2.27;56.39;99323.00;5013197;28;102920;-71
2022/03/07 07:58:16;;;;;;;9.60;8.70;;;;;;;2.93;53.99;99330.53;5007990;27;104007;-72
2022/03/07 08:00:44;;;;;;;9.10;8.30;;;;;;;2.77;54.60;99324.94;5006859;27;103076;-71
2022/03/07 08:03:12;;;;;;;9.80;8.90;;;;;;;2.52;52.94;99337.03;5005687;28;103229;-71
2022/03/07 08:05:41;;;;;;;10.30;9.05;;;;;;;2.34;54.43;99337.56;5005285;28;102747;-72
2022/03/07 08:08:12;;;;;;;10.32;9.32;;;;;;;1.98;54.94;99346.44;5005284;28;102741;-71
2022/03/07 08:10:40;;;;;;;10.05;9.15;;;;;;;2.76;52.87;99344.09;5005877;28;103263;-72
2022/03/07 08:13:08;;;;;;;10.90;9.95;;;;;;;2.48;53.82;99343.22;5009044;28;103234;-72
2022/03/07 08:15:37;;;;;;;10.68;9.73;;;;;;;2.78;55.02;99352.72;5007773;28;102852;-72
2022/03/07 08:18:06;;;;;;;10.57;9.57;;;;;;;2.44;54.34;99356.41;5009709;28;103082;-71
2022/03/07 08:20:35;;;;;;;11.20;10.18;;;;;;;1.86;55.67;99363.25;5014469;28;103318;-73
2022/03/07 08:23:04;;;;;;;10.48;9.57;;;;;;;2.99;54.08;99345.16;5008273;27;104224;-72
2022/03/07 08:25:33;;;;;;;10.52;9.63;;;;;;;3.45;51.96;99355.81;5003077;28;102968;-73
2022/03/07 08:28:01;;;;;;;11.48;10.48;;;;;;;2.45;53.75;99361.56;4999368;28;102826;-72
2022/03/07 08:30:29;;;;;;;10.30;9.40;;;;;;;3.38;50.85;99352.53;5008429;28;103294;-69
2022/03/07 08:32:59;;;;;;;11.38;10.38;;;;;;;2.10;53.45;99352.16;5010868;27;103187;-69
2022/03/07 08:35:28;;;;;;;11.07;10.13;;;;;;;3.49;52.46;99350.44;5005280;28;102937;-71
2022/03/07 08:37:58;;;;;;;11.45;10.45;;;;;;;2.84;52.68;99349.06;5015649;27;103834;-72
2022/03/07 08:40:27;;;;;;;11.10;10.00;;;;;;;3.70;52.02;99350.63;5008365;28;104041;-72
2022/03/07 08:42:55;;;;;;;11.30;10.27;;;;;;;2.84;51.77;99352.53;5012635;28;103251;-72
2022/03/07 08:45:25;;;;;;;12.03;10.83;;;;;;;3.07;52.46;99356.19;5011718;28;103064;-72
2022/03/07 08:48:14;;;;;;;11.10;10.20;;;;;;;3.61;52.32;99356.16;5009581;28;102847;-72
2022/03/07 08:50:42;;;;;;;11.38;10.48;;;;;;;4.75;48.96;99366.78;5006918;28;104524;-72
2022/03/07 08:53:11;;;;;;;11.23;10.23;;;;;;;2.89;50.55;99366.31;5008706;28;103287;-72
2022/03/07 08:55:39;;;;;;;10.68;9.77;;;;;;;3.76;50.77;99366.09;5009760;28;102664;-72
2022/03/07 08:58:13;;;;;;;12.10;11.00;;;;;;;4.27;49.95;99355.50;5009605;27;103484;-72
2022/03/07 09:00:41;;;;;;;12.02;10.95;;;;;;;2.18;53.11;99368.44;5009377;28;103328;-72
2022/03/07 09:03:12;;;;;;;11.98;10.88;;;;;;;3.39;52.16;99369.09;5006545;28;103581;-72
2022/03/07 09:05:41;;;;;;;11.15;10.18;;;;;;;4.84;48.28;99360.34;5008327;27;102705;-74
2022/03/07 09:08:12;;;;;;;11.90;10.75;;;;;;;3.01;50.86;99364.22;5006609;28;103262;-72
2022/03/07 09:10:40;;;;;;;11.55;10.55;;;;;;;3.39;50.09;99371.69;5008270;28;104419;-73
2022/03/07 09:13:08;;;;;;;11.50;10.50;;;;;;;3.98;49.09;99369.66;5002019;28;103286;-72
2022/03/07 09:15:37;;;;;;;12.05;10.95;;;;;;;3.20;50.53;99373.19;5002140;28;103019;-72
2022/03/07 09:18:05;;;;;;;10.57;9.67;;;;;;;4.80;47.46;99367.44;5007290;28;102804;-69
2022/03/07 09:20:33;;;;;;;11.93;10.82;;;;;;;2.59;51.69;99372.47;5000672;28;104247;-74
2022/03/07 09:23:02;;;;;;;12.38;11.10;;;;;;;3.13;51.20;99374.28;5002250;28;103304;-73
2022/03/07 09:25:31;;;;;;;12.02;11.02;;;;;;;3.43;50.38;99375.91;5008484;28;104403;-73
2022/03/07 09:27:59;;;;;;;11.40;10.30;;;;;;;3.90;50.28;99369.91;5005089;28;103182;-74
2022/03/07 09:30:27;;;;;;;11.00;10.10;;;;;;;4.48;48.12;99378.28;5005204;28;104185;-70
2022/03/07 09:32:56;;;;;;;11.23;10.32;;;;;;;3.30;50.35;99378.06;5006797;28;103204;-70
2022/03/07 09:35:24;;;;;;;11.70;10.70;;;;;;;3.66;50.58;99376.00;5003574;28;104045;-70
2022/03/07 09:37:52;;;;;;;11.57;10.67;;;;;;;3.84;48.50;99372.75;5006013;28;103275;-70
2022/03/07 09:40:22;;;;;;;11.82;10.82;;;;;;;2.87;50.30;99378.56;5006989;28;103883;-70
2022/03/07 09:42:52;;;;;;;11.18;10.18;;;;;;;3.90;47.91;99377.75;5013698;28;103290;-70
2022/03/07 09:45:20;;;;;;;11.95;10.95;;;;;;;2.94;49.75;99384.44;4993907;27;103877;-70
2022/03/07 09:47:51;;;;;;;11.60;10.60;;;;;;;4.53;48.60;99381.59;4997430;27;102745;-69
2022/03/07 09:50:20;;;;;;;11.37;10.43;;;;;;;5.26;45.84;99377.84;5001303;28;104608;-69
2022/03/07 09:52:48;;;;;;;11.63;10.63;;;;;;;4.91;46.85;99391.44;5005236;27;103200;-70
2022/03/07 09:55:18;;;;;;;12.30;11.20;;;;;;;3.38;48.38;99381.28;5008740;28;102726;-69
2022/03/07 09:57:48;;;;;;;11.27;10.27;;;;;;;3.47;49.10;99387.97;5005552;27;104279;-70
2022/03/07 10:00:17;;;;;;;11.75;10.68;;;;;;;4.58;47.67;99382.25;5009092;28;103267;-73
2022/03/07 10:02:56;;;;;;;11.18;10.13;;;;;;;4.50;46.47;99384.31;5005641;28;104130;-73
2022/03/07 10:05:28;;;;;;;11.95;10.80;;;;;;;3.50;48.30;99387.88;5006230;28;102988;-75
2022/03/07 10:07:56;;;;;;;11.48;10.48;;;;;;;3.85;48.77;99381.44;5005315;28;102694;-74
2022/03/07 10:10:30;;;;;;;10.80;9.80;;;;;;;3.96;48.58;99379.28;5008408;28;104392;-74
2022/03/07 10:13:06;;;;;;;11.73;10.73;;;;;;;3.68;48.62;99391.63;5006339;28;103511;-70
2022/03/07 10:15:35;;;;;;;11.52;10.57;;;;;;;3.62;47.35;99387.44;5003636;28;103309;-70
2022/03/07 10:18:04;;;;;;;11.30;10.40;;;;;;;3.96;47.43;99389.75;5004948;28;103850;-70
2022/03/07 10:20:32;;;;;;;11.23;10.23;;;;;;;4.04;47.38;99388.59;5013274;27;103698;-74
2022/03/07 10:23:02;;;;;;;11.65;10.55;;;;;;;3.18;49.11;99398.47;5004280;27;103263;-73
2022/03/07 10:25:35;;;;;;;11.13;10.10;;;;;;;4.26;47.67;99387.84;5009914;27;103055;-74
2022/03/07 10:28:05;;;;;;;11.37;10.47;;;;;;;3.81;48.53;99391.16;5007244;27;103623;-70
2022/03/07 10:30:34;;;;;;;11.07;10.07;;;;;;;3.15;48.05;99395.97;5008079;28;104052;-74
2022/03/07 10:33:05;;;;;;;10.90;10.00;;;;;;;4.05;47.62;99389.44;5007897;28;104310;-73
2022/03/07 10:35:38;;;;;;;11.18;10.20;;;;;;;4.45;46.46;99389.72;5015226;28;102591;-69
2022/03/07 10:38:08;;;;;;;10.90;9.82;;;;;;;4.33;45.73;99387.56;5012697;27;102690;-73
2022/03/07 10:40:39;;;;;;;11.48;10.45;;;;;;;3.14;48.54;99389.06;5005915;28;104280;-73
2022/03/07 10:43:09;;;;;;;10.97;10.03;;;;;;;3.29;47.25;99391.16;5006652;28;103319;-69
2022/03/07 10:45:46;;;;;;;10.98;10.07;;;;;;;3.35;48.17;99386.59;5011167;28;104369;-69
2022/03/07 10:48:18;;;;;;;11.02;10.02;;;;;;;3.92;46.91;99382.94;5009954;28;104018;-74
2022/03/07 10:50:51;;;;;;;11.37;10.37;;;;;;;3.55;47.06;99388.56;5009187;28;104278;-73
2022/03/07 10:53:23;;;;;;;10.60;9.70;;;;;;;3.01;47.84;99379.88;5009920;28;103173;-73
2022/03/07 10:55:53;;;;;;;10.38;9.48;;;;;;;2.59;49.44;99376.81;5008724;28;102731;-73
2022/03/07 10:58:24;;;;;;;10.70;9.80;;;;;;;3.13;48.05;99379.50;5007763;28;102706;-73
2022/03/07 11:00:54;;;;;;;10.45;9.55;;;;;;;2.84;47.42;99383.88;5007868;28;103275;-74
2022/03/07 11:03:24;;;;;;;10.18;9.38;;;;;;;2.67;48.39;99375.69;5005096;28;103433;-73
2022/03/07 11:05:53;;;;;;;10.60;9.70;;;;;;;2.62;48.62;99372.38;5006388;28;103156;-71
2022/03/07 11:08:23;;;;;;;10.60;9.70;;;;;;;3.12;47.61;99372.56;5005089;28;104169;-72
2022/03/07 11:10:53;;;;;;;11.02;10.02;;;;;;;3.00;47.68;99373.81;5005122;28;103902;-72
2022/03/07 11:13:26;;;;;;;10.70;9.80;;;;;;;3.94;46.43;99358.44;5005136;28;103211;-72
2022/03/07 11:15:59;;;;;;;10.68;9.77;;;;;;;5.09;44.57;99361.94;5011880;27;103009;-69
2022/03/07 11:18:31;;;;;;;10.82;9.82;;;;;;;5.47;43.15;99356.91;5006469;28;104457;-73
2022/03/07 11:21:03;;;;;;;10.73;9.63;;;;;;;4.35;44.74;99358.72;5009585;28;104078;-71
2022/03/07 11:23:31;;;;;;;10.05;9.15;;;;;;;5.11;43.94;99343.53;5010122;27;103166;-69
2022/03/07 11:26:00;;;;;;;10.30;9.43;;;;;;;4.53;45.05;99340.56;5005913;28;102937;-69
2022/03/07 11:28:32;;;;;;;10.25;9.45;;;;;;;3.89;46.07;99342.06;5008317;28;102868;-69
2022/03/07 11:31:00;;;;;;;10.73;9.73;;;;;;;3.76;46.14;99340.78;5007074;28;103708;-70
2022/03/07 11:33:37;;;;;;;10.70;9.80;;;;;;;4.20;45.89;99340.97;5013773;27;103090;-70